Souda — SVBH5 — position and weather

sailwx.info

Track history (hours):
 
Tides and Currents Weather Stations Pressure Air Temp Water Temp Dewpoint Dewpoint Depression Visibility Wind Speed Wind Dir Waves Ship Positions

Souda

Last reported at 2014-Oct-20 13:33 UTC. Time now 2014-Oct-21 00:31 UTC.
Position N 36°43' E 023°59'.

Length 88 m; draft 5.1 m.

Type: Tanker. MMSI: 241109000.

Date/timePositionNaut miles runAvg speedWind from/ knotsBaromVisibWave heightAir tempDewpointWater temp
2014-Oct-20 13:33N 36°43' E 023°59'8 8.4
2014-Oct-20 12:33N 36°51' E 023°57'11 8.7
2014-Oct-20 11:19N 37°01' E 023°54'31 1.3
2014-Oct-19 11:26N 37°30' E 023°41'8 7.4
2014-Oct-19 10:24N 37°37' E 023°43'7 8.3
2014-Oct-19 09:33N 37°44' E 023°40'7 7.3
2014-Oct-19 08:33N 37°50' E 023°34'8 7.7
2014-Oct-19 07:33N 37°51' E 023°25'11 8.0
2014-Oct-19 06:12N 37°53' E 023°11'5 7.9
2014-Oct-19 05:33N 37°55' E 023°06'0 0.0
2014-Oct-18 23:33N 37°55' E 023°05'0 0.0
2014-Oct-18 22:31N 37°55' E 023°05'0 0.0
2014-Oct-18 21:28N 37°55' E 023°05'0 0.0
2014-Oct-18 14:33N 37°55' E 023°05'6 6.2
2014-Oct-18 13:32N 37°53' E 023°13'8 7.9
2014-Oct-18 12:33N 37°51' E 023°22'8 8.0
2014-Oct-18 11:33N 37°49' E 023°32'7 7.3
2014-Oct-18 10:33N 37°47' E 023°41'8 7.6
2014-Oct-18 09:33N 37°40' E 023°46'8 8.1
2014-Oct-18 08:33N 37°37' E 023°55'24 7.7
2014-Oct-18 05:24N 37°47' E 024°23'184 4.6
2014-Oct-16 13:21N 40°38' E 022°53'185 4.4
2014-Oct-14 19:07N 37°46' E 024°21'30 7.7
2014-Oct-14 15:12N 37°40' E 023°44'5 7.6
2014-Oct-14 14:32N 37°44' E 023°40'7 7.3
2014-Oct-14 13:33N 37°49' E 023°35'8 8.3
2014-Oct-14 12:33N 37°51' E 023°24'16 1.0
2014-Oct-13 20:33N 37°55' E 023°05'1 0.1
2014-Oct-13 04:19N 37°55' E 023°07'7 8.7
2014-Oct-13 03:30N 37°52' E 023°15'9 9.0
2014-Oct-13 02:33N 37°51' E 023°26'9 8.9
2014-Oct-13 01:33N 37°50' E 023°37'8 8.4
2014-Oct-13 00:33N 37°43' E 023°43'56 9.0
2014-Oct-12 18:22N 36°49' E 023°58'8 8.8
2014-Oct-12 17:25N 36°41' E 023°59'17 9.0
2014-Oct-12 15:32N 36°24' E 024°03'9 8.9
2014-Oct-12 14:33N 36°15' E 024°05'20 0.5
2014-Oct-10 23:27N 36°35' E 024°01'16 8.4
2014-Oct-10 21:33N 36°50' E 023°58'50 8.3
2014-Oct-10 15:32N 37°39' E 023°43'9 8.6
2014-Oct-10 14:33N 37°47' E 023°38'8 7.8
2014-Oct-10 13:33N 37°50' E 023°29'  
Track history (hours):
 
Tides and Currents Weather Stations Pressure Air Temp Water Temp Dewpoint Dewpoint Depression Visibility Wind Speed Wind Dir Waves Ship Positions

Souda

Last reported at 2014-Oct-20 13:33 UTC. Time now 2014-Oct-21 00:31 UTC.
Position N 36°43' E 023°59'.

Length 88 m; draft 5.1 m.

Type: Tanker. MMSI: 241109000.

Date/timePositionNaut miles runAvg speedWind from/ knotsBaromVisibWave heightAir tempDewpointWater temp
2014-Oct-20 13:33N 36°43' E 023°59'8 8.4
2014-Oct-20 12:33N 36°51' E 023°57'11 8.7
2014-Oct-20 11:19N 37°01' E 023°54'31 1.3
2014-Oct-19 11:26N 37°30' E 023°41'8 7.4
2014-Oct-19 10:24N 37°37' E 023°43'7 8.3
2014-Oct-19 09:33N 37°44' E 023°40'7 7.3
2014-Oct-19 08:33N 37°50' E 023°34'8 7.7
2014-Oct-19 07:33N 37°51' E 023°25'11 8.0
2014-Oct-19 06:12N 37°53' E 023°11'5 7.9
2014-Oct-19 05:33N 37°55' E 023°06'0 0.0
2014-Oct-18 23:33N 37°55' E 023°05'0 0.0
2014-Oct-18 22:31N 37°55' E 023°05'0 0.0
2014-Oct-18 21:28N 37°55' E 023°05'0 0.0
2014-Oct-18 14:33N 37°55' E 023°05'6 6.2
2014-Oct-18 13:32N 37°53' E 023°13'8 7.9
2014-Oct-18 12:33N 37°51' E 023°22'8 8.0
2014-Oct-18 11:33N 37°49' E 023°32'7 7.3
2014-Oct-18 10:33N 37°47' E 023°41'8 7.6
2014-Oct-18 09:33N 37°40' E 023°46'8 8.1
2014-Oct-18 08:33N 37°37' E 023°55'24 7.7
2014-Oct-18 05:24N 37°47' E 024°23'184 4.6
2014-Oct-16 13:21N 40°38' E 022°53'185 4.4
2014-Oct-14 19:07N 37°46' E 024°21'30 7.7
2014-Oct-14 15:12N 37°40' E 023°44'5 7.6
2014-Oct-14 14:32N 37°44' E 023°40'7 7.3
2014-Oct-14 13:33N 37°49' E 023°35'8 8.3
2014-Oct-14 12:33N 37°51' E 023°24'16 1.0
2014-Oct-13 20:33N 37°55' E 023°05'1 0.1
2014-Oct-13 04:19N 37°55' E 023°07'7 8.7
2014-Oct-13 03:30N 37°52' E 023°15'9 9.0
2014-Oct-13 02:33N 37°51' E 023°26'9 8.9
2014-Oct-13 01:33N 37°50' E 023°37'8 8.4
2014-Oct-13 00:33N 37°43' E 023°43'56 9.0
2014-Oct-12 18:22N 36°49' E 023°58'8 8.8
2014-Oct-12 17:25N 36°41' E 023°59'17 9.0
2014-Oct-12 15:32N 36°24' E 024°03'9 8.9
2014-Oct-12 14:33N 36°15' E 024°05'20 0.5
2014-Oct-10 23:27N 36°35' E 024°01'16 8.4
2014-Oct-10 21:33N 36°50' E 023°58'50 8.3
2014-Oct-10 15:32N 37°39' E 023°43'9 8.6
2014-Oct-10 14:33N 37°47' E 023°38'8 7.8
2014-Oct-10 13:33N 37°50' E 023°29'  

Dump ship's entire track history